Time;durP1;ratioP1;P1;durP2;ratioP2;P2;SDS_P1;SDS_P2;PMS_P1;PMS_P2;Temp;Humidity;BMP_temperature;BMP_pressure;BME280_temperature;BME280_humidity;BME280_pressure;Samples;Min_cycle;Max_cycle;Signal;HPM_P1;HPM_P2
2023/06/30 00:00:33;;;;;;;2.08;1.77;;;;;;;22.69;57.98;101438.44;5019411;28;20124;-48
2023/06/30 00:02:59;;;;;;;2.03;1.73;;;;;;;22.69;57.49;101430.28;5016823;28;20452;-47
2023/06/30 00:05:25;;;;;;;2.17;1.98;;;;;;;22.70;57.80;101439.31;5014705;28;20484;-48
2023/06/30 00:07:54;;;;;;;1.60;1.50;;;;;;;22.69;57.43;101437.59;5019255;28;20041;-48
2023/06/30 00:10:21;;;;;;;2.10;1.60;;;;;;;22.69;57.57;101432.16;5015969;28;20369;-48
2023/06/30 00:12:47;;;;;;;2.17;1.70;;;;;;;22.69;57.94;101424.03;5017761;28;20140;-48
2023/06/30 00:15:12;;;;;;;2.85;1.75;;;;;;;22.69;57.86;101432.16;5016793;28;20487;-47
2023/06/30 00:17:38;;;;;;;2.20;1.65;;;;;;;22.68;58.02;101435.91;5014739;28;20054;-48
2023/06/30 00:20:05;;;;;;;1.88;1.45;;;;;;;22.68;57.96;101435.91;5013144;28;20464;-49
2023/06/30 00:22:31;;;;;;;2.45;1.55;;;;;;;22.68;57.95;101431.31;5020251;28;20379;-49
2023/06/30 00:24:58;;;;;;;2.00;1.80;;;;;;;22.69;57.88;101437.59;5016050;28;20026;-48
2023/06/30 00:27:23;;;;;;;2.33;1.70;;;;;;;22.67;57.88;101432.31;5017975;28;20057;-46
2023/06/30 00:29:49;;;;;;;1.70;1.30;;;;;;;22.67;57.95;101428.75;5018554;28;20058;-48
2023/06/30 00:32:14;;;;;;;1.50;1.40;;;;;;;22.67;57.35;101435.03;5017226;28;20030;-46
2023/06/30 00:34:40;;;;;;;2.92;1.55;;;;;;;22.65;57.82;101427.06;5016887;28;20057;-48
2023/06/30 00:37:06;;;;;;;1.42;1.33;;;;;;;22.65;57.77;101421.63;5020083;28;20498;-49
2023/06/30 00:39:31;;;;;;;1.65;1.40;;;;;;;22.66;57.47;101427.91;5016156;28;20037;-48
2023/06/30 00:41:56;;;;;;;2.10;1.42;;;;;;;22.64;57.29;101428.09;5017798;28;20029;-48
2023/06/30 00:44:22;;;;;;;1.75;1.38;;;;;;;22.66;57.41;101419.78;5018919;28;20042;-48
2023/06/30 00:46:47;;;;;;;1.90;1.45;;;;;;;22.63;57.17;101422.81;5025262;28;20430;-48
2023/06/30 00:49:12;;;;;;;1.20;1.10;;;;;;;22.64;57.66;101419.94;5016816;28;20034;-46
2023/06/30 00:51:39;;;;;;;1.23;1.13;;;;;;;22.64;57.22;101419.09;5020392;28;20361;-49
2023/06/30 00:54:04;;;;;;;1.50;1.20;;;;;;;22.63;57.72;101412.78;5019613;28;20096;-47
2023/06/30 00:56:29;;;;;;;1.58;1.20;;;;;;;22.61;57.38;101417.53;5017347;28;20030;-46
2023/06/30 00:58:57;;;;;;;1.42;1.00;;;;;;;22.62;57.05;101423.84;5021641;28;20040;-49
2023/06/30 01:01:51;;;;;;;2.30;1.35;;;;;;;22.65;57.59;101420.78;5023375;28;20033;-47
2023/06/30 01:04:37;;;;;;;1.48;1.27;;;;;;;22.64;57.53;101421.81;5021748;28;20057;-47
2023/06/30 01:07:22;;;;;;;0.98;0.98;;;;;;;22.64;57.42;101424.53;5020028;28;20107;-47
2023/06/30 01:09:58;;;;;;;1.52;1.38;;;;;;;22.62;57.41;101424.69;5022304;28;20384;-49
2023/06/30 01:12:25;;;;;;;2.05;1.17;;;;;;;22.61;57.52;101430.25;5015817;28;20030;-48
2023/06/30 01:14:52;;;;;;;1.50;1.27;;;;;;;22.59;57.46;101422.28;5015682;28;20108;-48
2023/06/30 01:17:19;;;;;;;1.83;1.08;;;;;;;22.58;57.23;101415.16;5020217;28;20568;-47
2023/06/30 01:19:47;;;;;;;1.60;1.25;;;;;;;22.59;57.39;101421.44;5016455;28;20125;-47
2023/06/30 01:22:24;;;;;;;2.25;1.13;;;;;;;22.59;57.02;101426.88;5019731;28;20422;-46
2023/06/30 01:24:53;;;;;;;2.92;1.30;;;;;;;22.58;56.71;101426.03;5023442;28;20033;-48
2023/06/30 01:27:21;;;;;;;0.95;0.90;;;;;;;22.58;57.28;101420.59;5018459;28;20076;-49
2023/06/30 01:29:47;;;;;;;2.13;1.17;;;;;;;22.58;56.80;101426.03;5021511;28;20091;-46
2023/06/30 01:32:16;;;;;;;1.42;1.15;;;;;;;22.58;56.74;101427.88;5020912;28;20450;-47
2023/06/30 01:34:46;;;;;;;2.65;1.48;;;;;;;22.57;56.66;101432.44;5024184;28;20040;-47
2023/06/30 01:37:12;;;;;;;2.47;1.30;;;;;;;22.58;56.95;101436.00;5019098;28;20111;-48
2023/06/30 01:39:38;;;;;;;1.23;1.13;;;;;;;22.57;57.07;101432.44;5018145;28;20034;-48
2023/06/30 01:42:05;;;;;;;1.90;1.45;;;;;;;22.56;57.12;101428.06;5014228;28;20494;-48
2023/06/30 01:44:30;;;;;;;1.83;1.30;;;;;;;22.56;56.65;101429.91;5022026;28;20476;-47
2023/06/30 01:46:56;;;;;;;1.30;1.20;;;;;;;22.56;56.41;101419.91;5016491;28;20036;-47
2023/06/30 01:49:21;;;;;;;2.40;1.10;;;;;;;22.55;56.85;101420.06;5014606;28;20026;-48
2023/06/30 01:51:47;;;;;;;1.58;1.25;;;;;;;22.55;56.60;101418.19;5021271;28;20042;-48
2023/06/30 01:54:12;;;;;;;1.35;1.08;;;;;;;22.55;56.36;101414.63;5016849;28;20038;-48
2023/06/30 01:56:38;;;;;;;1.73;1.20;;;;;;;22.54;56.69;101413.81;5014082;28;20449;-46
2023/06/30 01:59:03;;;;;;;2.20;1.17;;;;;;;22.54;56.37;101412.94;5021194;28;20029;-48
2023/06/30 02:01:28;;;;;;;1.73;1.20;;;;;;;22.54;56.29;101413.81;5015532;28;20053;-46
2023/06/30 02:03:54;;;;;;;2.15;1.17;;;;;;;22.55;56.55;101411.94;5017485;28;20060;-46
2023/06/30 02:06:19;;;;;;;1.88;1.00;;;;;;;22.53;56.39;101406.66;5019820;28;20030;-47
2023/06/30 02:08:44;;;;;;;1.45;1.00;;;;;;;22.53;56.01;101405.81;5022219;28;20096;-47
2023/06/30 02:11:10;;;;;;;2.03;1.00;;;;;;;22.52;56.15;101406.81;5015229;28;20030;-48
2023/06/30 02:13:35;;;;;;;1.10;1.00;;;;;;;22.52;56.45;101410.38;5017637;28;20137;-47
2023/06/30 02:16:00;;;;;;;2.45;1.40;;;;;;;22.51;56.15;101408.69;5019111;28;20037;-48
2023/06/30 02:18:26;;;;;;;2.05;1.20;;;;;;;22.51;56.14;101411.41;5015080;28;20074;-48
2023/06/30 02:20:51;;;;;;;1.33;1.00;;;;;;;22.51;56.29;101408.69;5022611;28;20068;-48
2023/06/30 02:23:16;;;;;;;2.20;1.00;;;;;;;22.51;56.02;101407.84;5022565;28;20119;-47
2023/06/30 02:25:42;;;;;;;1.52;1.00;;;;;;;22.50;56.02;101400.69;5017367;28;20029;-48
2023/06/30 02:28:07;;;;;;;1.00;0.90;;;;;;;22.49;56.05;101399.84;5022995;28;20126;-48
2023/06/30 02:30:32;;;;;;;1.40;1.17;;;;;;;22.50;55.81;101408.84;5018217;28;20029;-47
2023/06/30 02:32:58;;;;;;;2.60;1.05;;;;;;;22.50;56.16;101403.41;5023506;28;20475;-48
2023/06/30 02:35:24;;;;;;;2.05;0.98;;;;;;;22.48;55.87;101411.72;5016367;28;20109;-48
2023/06/30 02:37:50;;;;;;;1.42;1.10;;;;;;;22.48;55.75;101411.72;5016207;28;20113;-47
2023/06/30 02:40:15;;;;;;;1.10;0.88;;;;;;;22.47;55.69;101418.16;5017532;28;20113;-49
2023/06/30 02:42:41;;;;;;;1.40;1.05;;;;;;;22.48;55.62;101427.16;5021696;28;20033;-45
2023/06/30 02:45:07;;;;;;;2.10;1.00;;;;;;;22.47;55.60;101426.31;5023480;28;20117;-48
2023/06/30 02:47:32;;;;;;;1.45;1.00;;;;;;;22.47;55.48;101428.19;5019208;28;20043;-46
2023/06/30 02:49:58;;;;;;;1.63;1.10;;;;;;;22.47;55.79;101428.19;5018827;28;20029;-47
2023/06/30 02:52:23;;;;;;;1.48;1.20;;;;;;;22.47;56.03;101436.31;5017451;28;20068;-48
2023/06/30 02:54:48;;;;;;;1.13;0.90;;;;;;;22.45;55.50;101439.19;5018707;28;20034;-47
2023/06/30 02:57:14;;;;;;;2.70;1.23;;;;;;;22.46;55.32;101438.16;5015770;28;20029;-46
2023/06/30 02:59:39;;;;;;;1.13;0.90;;;;;;;22.44;55.16;101441.03;5018370;28;20025;-46
2023/06/30 03:02:05;;;;;;;1.85;1.20;;;;;;;22.45;55.75;101436.47;5016895;28;20033;-49
2023/06/30 03:04:30;;;;;;;1.85;0.95;;;;;;;22.44;55.72;101438.31;5015690;28;20021;-48
2023/06/30 03:06:55;;;;;;;2.30;1.30;;;;;;;22.43;54.95;101433.91;5021717;28;20029;-48
2023/06/30 03:09:21;;;;;;;1.25;1.10;;;;;;;22.43;55.18;101443.94;5016903;28;20095;-45
2023/06/30 03:11:46;;;;;;;2.67;1.20;;;;;;;22.43;55.45;101443.94;5018183;28;20037;-48
2023/06/30 03:14:12;;;;;;;1.55;0.95;;;;;;;22.42;55.09;101436.78;5019188;28;20049;-48
2023/06/30 03:16:37;;;;;;;1.42;1.00;;;;;;;22.42;55.42;101442.22;5016547;28;20060;-48
2023/06/30 03:19:02;;;;;;;1.15;0.90;;;;;;;22.41;55.18;101443.25;5021477;28;20140;-46
2023/06/30 03:21:28;;;;;;;1.00;0.80;;;;;;;22.40;55.38;101445.09;5013493;28;20026;-48
2023/06/30 03:23:53;;;;;;;1.30;1.20;;;;;;;22.40;55.21;101434.22;5016431;28;20044;-48
2023/06/30 03:26:18;;;;;;;2.55;1.10;;;;;;;22.39;55.17;101432.53;5023137;28;20026;-49
2023/06/30 03:28:44;;;;;;;1.02;0.90;;;;;;;22.39;55.30;101427.13;5017998;28;20049;-48
2023/06/30 03:31:09;;;;;;;1.58;0.90;;;;;;;22.39;55.12;101426.25;5017557;28;20032;-46
2023/06/30 03:33:35;;;;;;;2.22;1.10;;;;;;;22.38;55.07;101428.13;5023941;28;20049;-48
2023/06/30 03:36:00;;;;;;;2.05;1.02;;;;;;;22.38;54.84;101421.84;5020070;28;20040;-48
2023/06/30 03:38:26;;;;;;;2.05;1.00;;;;;;;22.38;55.13;101419.97;5016198;28;20376;-48
2023/06/30 03:40:51;;;;;;;1.55;1.00;;;;;;;22.37;55.20;101425.56;5017807;28;20028;-48
2023/06/30 03:43:21;;;;;;;1.23;0.88;;;;;;;22.37;54.87;101412.00;5018374;28;20021;-46
2023/06/30 03:45:46;;;;;;;1.85;0.77;;;;;;;22.36;54.60;101415.72;5012783;28;20036;-46
2023/06/30 03:48:11;;;;;;;1.42;0.60;;;;;;;22.36;54.63;101415.72;5018624;28;20547;-46
2023/06/30 03:50:37;;;;;;;1.10;1.00;;;;;;;22.36;54.53;101415.72;5015436;28;20037;-48
2023/06/30 03:53:02;;;;;;;2.20;1.10;;;;;;;22.36;54.95;101415.72;5020673;28;20125;-48
2023/06/30 03:55:27;;;;;;;2.17;1.10;;;;;;;22.36;54.95;101410.31;5015925;28;20037;-45
2023/06/30 03:57:53;;;;;;;0.82;0.82;;;;;;;22.35;54.48;101405.88;5013604;28;20026;-44
2023/06/30 04:00:19;;;;;;;1.73;0.93;;;;;;;22.33;54.28;101416.03;5020386;28;20035;-46
2023/06/30 04:02:45;;;;;;;1.38;0.73;;;;;;;22.34;54.49;101415.03;5013614;28;20034;-48
2023/06/30 04:05:10;;;;;;;2.00;0.93;;;;;;;22.33;54.42;101416.91;5013921;28;20072;-49
2023/06/30 04:07:36;;;;;;;1.25;0.80;;;;;;;22.33;54.06;101410.63;5013303;28;20113;-49
2023/06/30 04:10:01;;;;;;;1.40;1.00;;;;;;;22.33;54.43;101411.50;5015330;28;20427;-46
2023/06/30 04:12:26;;;;;;;1.15;0.75;;;;;;;22.32;54.18;101403.50;5015613;28;20034;-48
2023/06/30 04:14:52;;;;;;;1.25;0.80;;;;;;;22.33;54.66;101416.91;5016587;28;20029;-48
2023/06/30 04:17:17;;;;;;;1.30;0.80;;;;;;;22.31;54.04;101416.19;5017129;28;20049;-49
2023/06/30 04:19:42;;;;;;;1.77;0.90;;;;;;;22.32;54.33;101417.06;5021478;28;20073;-45
2023/06/30 04:22:08;;;;;;;1.10;0.80;;;;;;;22.31;54.36;101416.19;5031043;28;20029;-48
2023/06/30 04:24:33;;;;;;;1.20;0.90;;;;;;;22.31;54.33;101418.91;5021380;28;20022;-45
2023/06/30 04:26:59;;;;;;;1.60;0.85;;;;;;;22.31;54.23;101415.34;5022556;28;20480;-48
2023/06/30 04:29:24;;;;;;;1.80;0.90;;;;;;;22.31;53.82;101426.22;5028553;28;20061;-44
2023/06/30 04:31:50;;;;;;;1.23;0.98;;;;;;;22.30;54.26;101416.38;5022047;28;20038;-48
2023/06/30 04:34:15;;;;;;;1.00;0.90;;;;;;;22.29;53.73;101411.97;5023512;28;20030;-48
2023/06/30 04:36:41;;;;;;;1.58;1.00;;;;;;;22.29;53.84;101420.94;5024117;28;20069;-48
2023/06/30 04:39:06;;;;;;;1.92;0.88;;;;;;;22.28;53.95;101413.81;5023478;28;20092;-46
2023/06/30 04:41:31;;;;;;;1.10;1.00;;;;;;;22.29;54.03;101411.97;5021381;28;20030;-48
2023/06/30 04:43:57;;;;;;;2.13;1.48;;;;;;;22.29;53.71;101410.09;5021568;28;20041;-48
2023/06/30 04:46:25;;;;;;;2.90;1.27;;;;;;;22.27;53.52;101411.28;5020660;28;20030;-45
2023/06/30 04:48:50;;;;;;;3.28;1.10;;;;;;;22.27;53.28;101405.84;5023208;28;20034;-46
2023/06/30 04:51:16;;;;;;;2.42;1.35;;;;;;;22.27;53.31;101408.56;5025922;28;20502;-47
2023/06/30 04:53:41;;;;;;;0.90;0.90;;;;;;;22.25;53.63;101408.72;5023658;28;20026;-48
2023/06/30 04:56:07;;;;;;;1.10;0.70;;;;;;;22.25;53.87;101417.69;5023463;28;20043;-49
2023/06/30 04:58:32;;;;;;;1.02;0.80;;;;;;;22.24;53.74;101418.69;5023093;28;20541;-48
2023/06/30 05:00:58;;;;;;;1.35;0.95;;;;;;;22.24;53.31;101415.97;5022575;28;20029;-48
2023/06/30 05:03:23;;;;;;;1.02;0.80;;;;;;;22.25;52.98;101419.56;5030239;28;20021;-47
2023/06/30 05:05:48;;;;;;;1.60;0.80;;;;;;;22.25;53.20;101419.56;5020636;28;20033;-47
2023/06/30 05:08:16;;;;;;;1.45;0.90;;;;;;;22.25;53.60;101425.84;5022148;28;20030;-48
2023/06/30 05:10:42;;;;;;;1.48;0.90;;;;;;;22.23;53.58;101411.53;5022068;28;20022;-48
2023/06/30 05:13:07;;;;;;;1.67;0.80;;;;;;;22.23;53.47;101416.97;5021505;28;20064;-48
2023/06/30 05:15:33;;;;;;;1.10;0.90;;;;;;;22.24;52.70;101418.69;5022959;28;20112;-46
2023/06/30 05:17:58;;;;;;;1.83;0.80;;;;;;;22.24;52.87;101415.13;5028909;28;20042;-48
2023/06/30 05:20:24;;;;;;;1.27;0.90;;;;;;;22.23;53.42;101416.97;5020956;28;20026;-48
2023/06/30 05:22:49;;;;;;;2.03;0.95;;;;;;;22.23;52.53;101411.53;5024390;28;20073;-48
2023/06/30 05:25:15;;;;;;;0.57;0.57;;;;;;;22.23;52.62;101410.72;5021835;28;20036;-49
2023/06/30 05:27:40;;;;;;;1.00;0.90;;;;;;;22.22;52.95;101420.72;5021195;28;20117;-47
2023/06/30 05:30:06;;;;;;;1.73;0.88;;;;;;;22.23;52.62;101424.28;5021702;28;20365;-47
2023/06/30 05:32:31;;;;;;;2.63;0.95;;;;;;;22.23;52.62;101416.13;5018799;28;20038;-47
2023/06/30 05:34:57;;;;;;;1.25;1.00;;;;;;;22.23;52.77;101418.84;5017548;28;20365;-46
2023/06/30 05:37:22;;;;;;;1.75;0.80;;;;;;;22.22;52.82;101418.00;5026022;28;20476;-47
2023/06/30 05:39:47;;;;;;;1.85;1.00;;;;;;;22.22;52.77;101415.28;5018867;28;20502;-46
2023/06/30 05:42:13;;;;;;;2.53;0.82;;;;;;;22.22;52.88;101415.28;5017183;28;20037;-47
2023/06/30 05:44:38;;;;;;;1.23;1.02;;;;;;;22.21;53.06;101419.00;5018507;28;20030;-48
2023/06/30 05:47:04;;;;;;;0.93;0.90;;;;;;;22.21;52.67;101421.72;5021192;28;20025;-47
2023/06/30 05:49:29;;;;;;;1.85;0.80;;;;;;;22.21;52.46;101424.41;5015745;28;20461;-48
2023/06/30 05:51:55;;;;;;;1.58;0.85;;;;;;;22.21;52.96;101424.41;5021917;28;20025;-48
2023/06/30 05:54:20;;;;;;;0.82;0.82;;;;;;;22.21;52.91;101415.44;5016647;28;20112;-47
2023/06/30 05:56:45;;;;;;;1.30;0.90;;;;;;;22.22;52.56;101418.00;5022205;28;20026;-47
2023/06/30 05:59:11;;;;;;;1.40;0.98;;;;;;;22.21;52.52;101423.59;5017815;28;20034;-47
2023/06/30 06:01:39;;;;;;;1.23;0.90;;;;;;;22.20;52.57;101422.75;5016321;28;20026;-48
2023/06/30 06:04:10;;;;;;;1.48;0.80;;;;;;;22.21;52.51;101423.59;5015790;28;20068;-47
2023/06/30 06:06:35;;;;;;;1.40;0.90;;;;;;;22.21;52.79;101420.88;5025092;28;20383;-48
2023/06/30 06:09:01;;;;;;;0.80;0.80;;;;;;;22.19;52.28;101421.03;5015266;28;20109;-47
2023/06/30 06:11:26;;;;;;;1.23;0.73;;;;;;;22.20;52.45;101428.16;5016899;28;20030;-47
2023/06/30 06:13:52;;;;;;;2.55;0.93;;;;;;;22.20;52.94;101422.75;5019449;28;20105;-47
2023/06/30 06:16:17;;;;;;;1.55;0.73;;;;;;;22.20;52.56;101421.88;5015419;28;20507;-48
2023/06/30 06:18:42;;;;;;;0.85;0.70;;;;;;;22.19;52.25;101421.03;5017885;28;20412;-49
2023/06/30 06:21:08;;;;;;;2.28;1.00;;;;;;;22.20;53.01;101424.56;5019465;28;20082;-47
2023/06/30 06:23:33;;;;;;;0.60;0.60;;;;;;;22.20;52.86;101427.28;5018847;28;20476;-48
2023/06/30 06:25:59;;;;;;;1.00;0.90;;;;;;;22.19;52.95;101421.03;5017556;28;20052;-46
2023/06/30 06:28:25;;;;;;;1.00;0.88;;;;;;;22.20;52.49;101430.00;5018625;28;20032;-46
2023/06/30 06:30:50;;;;;;;1.65;0.80;;;;;;;22.19;52.86;101429.16;5016511;28;20128;-47
2023/06/30 06:33:16;;;;;;;0.68;0.68;;;;;;;22.20;52.67;101427.28;5020360;28;20079;-47
2023/06/30 06:35:41;;;;;;;1.08;0.80;;;;;;;22.19;52.54;101423.72;5014785;28;20088;-47
2023/06/30 06:38:06;;;;;;;1.80;1.00;;;;;;;22.20;52.67;101435.44;5018953;28;20498;-47
2023/06/30 06:40:32;;;;;;;0.70;0.70;;;;;;;22.19;52.65;101440.00;5013894;28;20384;-48
2023/06/30 06:42:58;;;;;;;1.02;0.82;;;;;;;22.19;52.96;101434.59;5016146;28;20083;-48
2023/06/30 06:45:23;;;;;;;2.08;0.93;;;;;;;22.19;52.98;101421.03;5017593;28;20490;-47
2023/06/30 06:48:16;;;;;;;1.25;0.80;;;;;;;22.20;53.12;101436.31;5014609;28;20038;-48
2023/06/30 06:50:42;;;;;;;0.82;0.57;;;;;;;22.19;52.65;101426.44;5021510;28;20030;-49
2023/06/30 06:53:08;;;;;;;1.13;0.70;;;;;;;22.19;52.77;101425.59;5019295;28;20384;-48
2023/06/30 06:55:35;;;;;;;0.70;0.70;;;;;;;22.19;52.74;101431.88;5015427;28;20041;-47
2023/06/30 06:58:00;;;;;;;0.95;0.80;;;;;;;22.18;52.84;101430.19;5016725;28;20416;-47
2023/06/30 07:00:26;;;;;;;0.98;0.70;;;;;;;22.19;52.61;101425.59;5018045;28;20029;-47
2023/06/30 07:02:52;;;;;;;0.82;0.80;;;;;;;22.18;52.86;101424.75;5020248;28;20376;-48
2023/06/30 07:05:17;;;;;;;1.33;0.73;;;;;;;22.19;52.47;101433.75;4997993;28;20148;-45
2023/06/30 07:07:43;;;;;;;0.90;0.70;;;;;;;22.19;52.96;101433.75;5017636;28;20112;-48
2023/06/30 07:10:08;;;;;;;0.50;0.50;;;;;;;22.19;52.91;101426.44;5013589;28;20381;-48
2023/06/30 07:12:34;;;;;;;0.82;0.70;;;;;;;22.19;52.54;101431.88;5016474;28;20041;-47
2023/06/30 07:14:59;;;;;;;0.95;0.80;;;;;;;22.19;52.80;101429.16;5014567;28;20109;-45
2023/06/30 07:17:25;;;;;;;0.68;0.60;;;;;;;22.18;52.44;101424.75;5012348;28;20128;-49
2023/06/30 07:19:50;;;;;;;1.02;0.82;;;;;;;22.19;53.07;101425.59;5013188;28;20491;-45
2023/06/30 07:22:15;;;;;;;0.88;0.85;;;;;;;22.19;52.79;101434.59;5021915;28;20456;-46
2023/06/30 07:24:41;;;;;;;0.85;0.80;;;;;;;22.19;52.68;101437.28;5019960;28;20034;-45
2023/06/30 07:27:06;;;;;;;1.75;0.80;;;;;;;22.20;52.61;101436.31;5017199;28;20121;-47
2023/06/30 07:29:32;;;;;;;0.90;0.75;;;;;;;22.19;52.70;101436.47;5024850;28;20113;-46
2023/06/30 07:31:57;;;;;;;2.15;0.80;;;;;;;22.19;53.09;101437.28;5016930;28;20036;-48
2023/06/30 07:34:23;;;;;;;1.13;0.93;;;;;;;22.19;52.89;101433.75;5019497;28;20350;-47
2023/06/30 07:36:51;;;;;;;0.82;0.77;;;;;;;22.19;52.67;101436.47;5022684;28;20167;-47
2023/06/30 07:39:16;;;;;;;0.90;0.90;;;;;;;22.19;52.61;101448.16;5015205;28;20361;-49
2023/06/30 07:41:42;;;;;;;0.80;0.70;;;;;;;22.19;52.75;101441.88;5018121;28;20053;-47
2023/06/30 07:44:10;;;;;;;1.33;0.63;;;;;;;22.19;52.60;101445.44;5015894;28;20484;-47
2023/06/30 07:46:36;;;;;;;0.70;0.70;;;;;;;22.19;53.23;101445.44;5013913;28;20030;-47
2023/06/30 07:49:01;;;;;;;0.47;0.47;;;;;;;22.19;53.07;101442.72;5012639;28;20108;-45
2023/06/30 07:51:27;;;;;;;0.80;0.68;;;;;;;22.19;53.18;101436.47;5014503;28;20436;-42
2023/06/30 07:53:52;;;;;;;1.00;0.70;;;;;;;22.19;53.01;101428.31;5013334;28;20030;-47
2023/06/30 07:56:17;;;;;;;0.50;0.50;;;;;;;22.19;52.73;101437.28;5018003;28;20099;-46
2023/06/30 07:58:43;;;;;;;0.85;0.63;;;;;;;22.20;52.88;101432.72;5016026;28;20025;-48
2023/06/30 08:01:08;;;;;;;1.20;0.60;;;;;;;22.20;52.74;101432.72;5014560;28;20102;-47
2023/06/30 08:03:34;;;;;;;0.60;0.60;;;;;;;22.19;52.77;101434.59;5018426;28;20028;-45
2023/06/30 08:05:59;;;;;;;0.82;0.57;;;;;;;22.20;52.56;101443.56;5018314;28;20044;-47
2023/06/30 08:08:25;;;;;;;0.95;0.73;;;;;;;22.19;53.03;101448.16;5021066;28;20030;-47
2023/06/30 08:10:50;;;;;;;0.60;0.60;;;;;;;22.20;53.26;101438.13;5018617;28;20033;-47
2023/06/30 08:13:16;;;;;;;0.70;0.52;;;;;;;22.19;53.34;101442.72;5015258;28;20057;-48
2023/06/30 08:15:42;;;;;;;1.00;0.63;;;;;;;22.19;52.56;101433.75;5020494;28;20030;-48
2023/06/30 08:18:07;;;;;;;0.90;0.50;;;;;;;22.19;53.04;101431.88;5014565;28;20385;-48
2023/06/30 08:20:33;;;;;;;1.63;0.70;;;;;;;22.19;53.23;101431.88;5012549;28;20030;-46
2023/06/30 08:22:59;;;;;;;0.60;0.60;;;;;;;22.18;52.96;101432.91;5017743;28;20038;-48
2023/06/30 08:25:25;;;;;;;0.70;0.70;;;;;;;22.20;53.03;101436.31;5011922;28;20388;-47
2023/06/30 08:27:51;;;;;;;0.70;0.68;;;;;;;22.19;52.81;101431.88;5012836;28;20088;-47
2023/06/30 08:30:17;;;;;;;1.05;0.60;;;;;;;22.20;53.14;101427.28;5016089;28;20153;-49
2023/06/30 08:32:43;;;;;;;0.85;0.75;;;;;;;22.20;53.12;101428.16;5018820;28;20119;-48
2023/06/30 08:35:08;;;;;;;0.50;0.50;;;;;;;22.20;52.85;101428.16;5012949;28;20034;-48
2023/06/30 08:37:34;;;;;;;0.50;0.50;;;;;;;22.21;53.32;101429.84;5016919;28;20028;-47
2023/06/30 08:40:00;;;;;;;0.85;0.70;;;;;;;22.20;53.17;101430.88;5013038;28;20034;-48
2023/06/30 08:42:29;;;;;;;0.60;0.55;;;;;;;22.21;52.84;101418.16;5016490;28;20053;-48
2023/06/30 08:44:57;;;;;;;1.17;0.63;;;;;;;22.21;53.24;101415.44;5013744;28;20040;-47
2023/06/30 08:47:25;;;;;;;0.88;0.77;;;;;;;22.21;53.03;101413.56;5017834;28;20021;-48
2023/06/30 08:49:52;;;;;;;0.50;0.50;;;;;;;22.21;52.92;101407.31;5016373;28;20373;-46
2023/06/30 08:52:18;;;;;;;1.05;0.82;;;;;;;22.20;53.28;101406.47;5015148;28;20034;-46
2023/06/30 08:54:44;;;;;;;0.70;0.63;;;;;;;22.22;53.21;101403.59;5019098;28;20036;-49
2023/06/30 08:57:15;;;;;;;0.60;0.60;;;;;;;22.20;52.73;101395.63;5018027;28;20447;-48
2023/06/30 08:59:49;;;;;;;0.50;0.50;;;;;;;22.22;53.14;101407.16;5016878;28;20087;-49
2023/06/30 09:02:15;;;;;;;1.23;0.80;;;;;;;22.22;53.21;101404.44;5020038;28;20399;-46
2023/06/30 09:04:41;;;;;;;0.57;0.57;;;;;;;22.21;52.71;101394.59;5014156;28;20033;-47
2023/06/30 09:07:22;;;;;;;0.70;0.60;;;;;;;22.22;52.96;101396.31;5014660;28;20030;-48
2023/06/30 09:09:49;;;;;;;0.85;0.60;;;;;;;22.21;52.79;101408.16;5021489;28;20060;-43
2023/06/30 09:12:16;;;;;;;1.10;0.65;;;;;;;22.22;52.78;101399.00;5018735;28;20439;-47
2023/06/30 09:14:45;;;;;;;0.55;0.50;;;;;;;22.22;52.76;101399.00;5021967;28;20018;-46
2023/06/30 09:17:11;;;;;;;1.05;0.73;;;;;;;22.23;53.17;101395.28;5016798;28;20065;-48
2023/06/30 09:19:38;;;;;;;0.60;0.60;;;;;;;22.24;52.94;101404.28;5017279;28;20064;-48
2023/06/30 09:22:04;;;;;;;0.68;0.60;;;;;;;22.23;52.92;101399.84;5017982;28;20061;-48
2023/06/30 09:24:30;;;;;;;0.77;0.60;;;;;;;22.23;53.32;101403.41;5018025;28;20026;-47
2023/06/30 09:26:55;;;;;;;0.60;0.60;;;;;;;22.24;53.30;101401.56;5018408;28;20132;-48
2023/06/30 09:29:22;;;;;;;0.73;0.70;;;;;;;22.24;53.16;101397.00;5019240;28;20030;-48
2023/06/30 09:31:51;;;;;;;0.80;0.60;;;;;;;22.24;52.88;101391.56;5020379;28;20463;-47
2023/06/30 09:34:19;;;;;;;1.15;0.60;;;;;;;22.25;52.79;101392.44;5027457;28;20395;-48
2023/06/30 09:36:49;;;;;;;0.70;0.70;;;;;;;22.25;52.78;101393.28;5021559;28;20033;-45
2023/06/30 09:39:15;;;;;;;0.63;0.60;;;;;;;22.27;53.22;101389.56;5016972;28;20026;-46
2023/06/30 09:41:45;;;;;;;0.57;0.57;;;;;;;22.25;52.87;101390.56;5018873;28;20022;-47
2023/06/30 09:44:11;;;;;;;1.40;0.50;;;;;;;22.26;52.97;101388.72;5019928;28;20033;-48
2023/06/30 09:46:44;;;;;;;0.60;0.60;;;;;;;22.27;52.90;101381.44;5017992;28;20092;-44
2023/06/30 09:49:21;;;;;;;0.55;0.55;;;;;;;22.29;53.06;101387.53;5019125;28;20022;-47
2023/06/30 09:51:46;;;;;;;0.60;0.47;;;;;;;22.28;53.13;101381.28;5018161;28;20112;-45
2023/06/30 09:54:12;;;;;;;0.60;0.55;;;;;;;22.29;53.39;101382.13;5022397;28;20065;-48
2023/06/30 09:56:40;;;;;;;0.60;0.60;;;;;;;22.29;53.21;101388.38;5016061;28;20033;-44
2023/06/30 09:59:05;;;;;;;0.60;0.60;;;;;;;22.28;52.99;101388.56;5023144;28;20061;-48
2023/06/30 10:01:31;;;;;;;0.50;0.50;;;;;;;22.29;53.17;101387.53;5020931;28;20029;-48
2023/06/30 10:03:57;;;;;;;0.80;0.80;;;;;;;22.30;53.34;101383.84;5020226;28;20170;-47
2023/06/30 10:06:23;;;;;;;0.55;0.50;;;;;;;22.30;52.93;101381.13;5018316;28;20484;-44
2023/06/30 10:08:51;;;;;;;0.85;0.60;;;;;;;22.30;53.16;101383.84;5019680;28;20029;-48
2023/06/30 10:11:18;;;;;;;0.60;0.60;;;;;;;22.31;53.04;101374.66;5015556;28;20049;-47
2023/06/30 10:13:45;;;;;;;0.50;0.50;;;;;;;22.31;53.07;101375.50;5021422;28;20618;-47
2023/06/30 10:16:12;;;;;;;0.60;0.60;;;;;;;22.32;52.88;101376.38;5017795;28;20049;-44
2023/06/30 10:18:41;;;;;;;1.23;0.60;;;;;;;22.32;53.34;101377.22;5015167;28;20100;-46
2023/06/30 10:21:06;;;;;;;1.05;0.88;;;;;;;22.32;52.97;101371.78;5014627;28;20041;-44
2023/06/30 10:23:35;;;;;;;0.70;0.70;;;;;;;22.33;53.50;101372.63;5015257;28;20365;-47
2023/06/30 10:26:05;;;;;;;0.60;0.60;;;;;;;22.32;53.15;101371.78;5017266;28;20028;-48
2023/06/30 10:28:33;;;;;;;0.80;0.80;;;;;;;22.33;53.12;101370.78;5021790;28;20029;-44
2023/06/30 10:30:59;;;;;;;2.50;0.85;;;;;;;22.35;54.10;101373.31;5013979;28;20058;-46
2023/06/30 10:33:24;;;;;;;0.98;0.80;;;;;;;22.38;53.89;101367.59;5019475;28;20443;-47
2023/06/30 10:35:51;;;;;;;1.65;0.82;;;;;;;22.38;54.06;101363.00;5014888;28;20043;-48
2023/06/30 10:38:16;;;;;;;3.15;0.98;;;;;;;22.39;54.45;101351.16;5017713;28;20030;-46
2023/06/30 10:40:42;;;;;;;4.10;0.85;;;;;;;22.41;54.20;101351.00;5016828;28;20041;-45
2023/06/30 10:43:07;;;;;;;4.65;1.25;;;;;;;22.41;54.47;101346.41;5020667;28;20040;-46
2023/06/30 10:46:07;;;;;;;3.67;1.00;;;;;;;22.45;54.55;101353.19;5018713;28;20527;-45
2023/06/30 10:48:33;;;;;;;3.58;1.10;;;;;;;22.47;55.21;101352.19;5021629;28;20382;-47
2023/06/30 10:50:58;;;;;;;3.70;1.00;;;;;;;22.49;55.25;101344.75;5022973;28;20041;-46
2023/06/30 10:53:26;;;;;;;2.03;0.95;;;;;;;22.50;55.35;101347.25;5022592;28;20502;-46
2023/06/30 10:55:56;;;;;;;5.78;1.45;;;;;;;22.51;55.58;101342.72;5026686;28;20043;-46
2023/06/30 10:58:25;;;;;;;2.28;1.00;;;;;;;22.52;55.48;101339.81;5016411;28;20468;-43
2023/06/30 11:01:06;;;;;;;3.10;0.93;;;;;;;22.53;54.81;101336.09;5015190;28;20059;-47
2023/06/30 11:03:59;;;;;;;3.92;1.23;;;;;;;22.55;55.27;101336.78;5020021;28;20030;-46
2023/06/30 11:06:25;;;;;;;3.13;0.80;;;;;;;22.53;54.85;101335.25;5018202;28;20484;-46
2023/06/30 11:09:03;;;;;;;3.40;1.00;;;;;;;22.53;54.80;101327.94;5011526;28;20026;-44
2023/06/30 11:11:28;;;;;;;4.45;1.35;;;;;;;22.53;54.93;101330.66;5017215;28;20494;-44
2023/06/30 11:14:06;;;;;;;2.30;1.05;;;;;;;22.55;55.14;101325.09;5019004;28;20037;-44
2023/06/30 11:17:06;;;;;;;2.25;1.50;;;;;;;22.57;55.01;101323.06;5017709;28;20555;-45
2023/06/30 11:19:34;;;;;;;1.83;1.02;;;;;;;22.57;54.74;101323.88;5018644;28;20037;-47
2023/06/30 11:22:25;;;;;;;1.75;1.20;;;;;;;22.58;54.62;101325.59;5010816;28;20021;-48